Terminal Aerodrome Forecast
Issued by NWS

Current Version | Previous Version | Text Only | Print | Product List | Glossary On
Versions: 1 2 3 4 5 6 7 8 9 10 11 12
000
FTUS46 KMTR 311100
TAFMRY
TAF
KMRY 311130Z 3112/0112 10006KT P6SM BKN045
     FM311800 22006KT P6SM -RA OVC020
     FM010200 22003KT P6SM RA BKN018 OVC050=

USA.gov is the U.S. government's official web portal to all federal, state and local government web resources and services.